sensor_id;sensor_type;location;lat;lon;timestamp;P1;durP1;ratioP1;P2;durP2;ratioP2
13441;SDS011;6793;55.662;13.114;2023-01-28T03:33:14;0.60;;;0.60;;
13441;SDS011;6793;55.662;13.114;2023-01-28T03:36:00;0.90;;;0.90;;
13441;SDS011;6793;55.662;13.114;2023-01-28T03:38:45;0.93;;;0.93;;
13441;SDS011;6793;55.662;13.114;2023-01-28T03:41:12;0.60;;;0.60;;
13441;SDS011;6793;55.662;13.114;2023-01-28T03:43:45;0.70;;;0.70;;
13441;SDS011;6793;55.662;13.114;2023-01-28T03:46:12;0.60;;;0.60;;
13441;SDS011;6793;55.662;13.114;2023-01-28T03:48:40;0.70;;;0.70;;
13441;SDS011;6793;55.662;13.114;2023-01-28T03:51:07;0.60;;;0.60;;
13441;SDS011;6793;55.662;13.114;2023-01-28T03:53:34;0.70;;;0.70;;
13441;SDS011;6793;55.662;13.114;2023-01-28T03:56:01;0.60;;;0.60;;
13441;SDS011;6793;55.662;13.114;2023-01-28T03:58:28;0.60;;;0.60;;
13441;SDS011;6793;55.662;13.114;2023-01-28T04:01:10;0.50;;;0.50;;
13441;SDS011;6793;55.662;13.114;2023-01-28T04:03:37;0.50;;;0.50;;
13441;SDS011;6793;55.662;13.114;2023-01-28T04:06:07;0.50;;;0.50;;
13441;SDS011;6793;55.662;13.114;2023-01-28T04:08:34;0.50;;;0.50;;
13441;SDS011;6793;55.662;13.114;2023-01-28T04:11:01;0.60;;;0.60;;
13441;SDS011;6793;55.662;13.114;2023-01-28T04:13:39;0.57;;;0.57;;
13441;SDS011;6793;55.662;13.114;2023-01-28T04:16:06;0.50;;;0.50;;
13441;SDS011;6793;55.662;13.114;2023-01-28T04:18:33;0.50;;;0.50;;
13441;SDS011;6793;55.662;13.114;2023-01-28T04:21:00;0.60;;;0.60;;
13441;SDS011;6793;55.662;13.114;2023-01-28T04:23:29;0.40;;;0.40;;
13441;SDS011;6793;55.662;13.114;2023-01-28T04:25:56;0.50;;;0.50;;
13441;SDS011;6793;55.662;13.114;2023-01-28T04:28:23;0.50;;;0.50;;
13441;SDS011;6793;55.662;13.114;2023-01-28T04:30:50;0.40;;;0.40;;
13441;SDS011;6793;55.662;13.114;2023-01-28T04:33:18;0.40;;;0.40;;
13441;SDS011;6793;55.662;13.114;2023-01-28T04:35:45;0.40;;;0.40;;
13441;SDS011;6793;55.662;13.114;2023-01-28T04:38:12;0.40;;;0.40;;
13441;SDS011;6793;55.662;13.114;2023-01-28T04:40:40;0.40;;;0.40;;
13441;SDS011;6793;55.662;13.114;2023-01-28T04:43:07;0.40;;;0.40;;
13441;SDS011;6793;55.662;13.114;2023-01-28T04:45:34;0.40;;;0.40;;
13441;SDS011;6793;55.662;13.114;2023-01-28T04:48:01;0.40;;;0.40;;
13441;SDS011;6793;55.662;13.114;2023-01-28T04:50:28;0.40;;;0.40;;
13441;SDS011;6793;55.662;13.114;2023-01-28T04:52:55;0.40;;;0.40;;
13441;SDS011;6793;55.662;13.114;2023-01-28T04:55:22;0.40;;;0.40;;
13441;SDS011;6793;55.662;13.114;2023-01-28T04:57:51;0.40;;;0.40;;
13441;SDS011;6793;55.662;13.114;2023-01-28T05:00:18;0.30;;;0.30;;
13441;SDS011;6793;55.662;13.114;2023-01-28T05:02:45;0.30;;;0.30;;
13441;SDS011;6793;55.662;13.114;2023-01-28T05:05:12;0.40;;;0.40;;
13441;SDS011;6793;55.662;13.114;2023-01-28T05:07:39;0.40;;;0.40;;
13441;SDS011;6793;55.662;13.114;2023-01-28T05:10:07;0.40;;;0.40;;
13441;SDS011;6793;55.662;13.114;2023-01-28T05:12:34;0.30;;;0.30;;
13441;SDS011;6793;55.662;13.114;2023-01-28T05:15:02;0.30;;;0.30;;
13441;SDS011;6793;55.662;13.114;2023-01-28T05:17:29;0.40;;;0.40;;
13441;SDS011;6793;55.662;13.114;2023-01-28T05:19:56;0.30;;;0.30;;
13441;SDS011;6793;55.662;13.114;2023-01-28T05:22:23;0.40;;;0.40;;
13441;SDS011;6793;55.662;13.114;2023-01-28T05:24:50;0.30;;;0.30;;
13441;SDS011;6793;55.662;13.114;2023-01-28T05:27:17;0.30;;;0.30;;
13441;SDS011;6793;55.662;13.114;2023-01-28T05:29:45;0.40;;;0.40;;
13441;SDS011;6793;55.662;13.114;2023-01-28T05:32:13;0.40;;;0.40;;
13441;SDS011;6793;55.662;13.114;2023-01-28T05:34:40;0.30;;;0.30;;
13441;SDS011;6793;55.662;13.114;2023-01-28T05:37:07;0.30;;;0.30;;
13441;SDS011;6793;55.662;13.114;2023-01-28T05:39:34;0.30;;;0.30;;
13441;SDS011;6793;55.662;13.114;2023-01-28T05:42:01;0.30;;;0.30;;
13441;SDS011;6793;55.662;13.114;2023-01-28T05:44:28;0.30;;;0.30;;
13441;SDS011;6793;55.662;13.114;2023-01-28T05:46:55;0.30;;;0.30;;
13441;SDS011;6793;55.662;13.114;2023-01-28T05:49:23;0.40;;;0.40;;
13441;SDS011;6793;55.662;13.114;2023-01-28T05:51:51;0.30;;;0.30;;
13441;SDS011;6793;55.662;13.114;2023-01-28T05:54:18;0.30;;;0.30;;
13441;SDS011;6793;55.662;13.114;2023-01-28T05:56:45;0.30;;;0.30;;
13441;SDS011;6793;55.662;13.114;2023-01-28T05:59:12;0.30;;;0.30;;
13441;SDS011;6793;55.662;13.114;2023-01-28T06:01:39;0.30;;;0.30;;
13441;SDS011;6793;55.662;13.114;2023-01-28T06:04:06;0.30;;;0.30;;
13441;SDS011;6793;55.662;13.114;2023-01-28T06:06:34;0.30;;;0.30;;
13441;SDS011;6793;55.662;13.114;2023-01-28T06:09:01;0.30;;;0.30;;
13441;SDS011;6793;55.662;13.114;2023-01-28T06:11:28;0.30;;;0.30;;
13441;SDS011;6793;55.662;13.114;2023-01-28T06:13:56;0.40;;;0.40;;
13441;SDS011;6793;55.662;13.114;2023-01-28T06:16:23;0.40;;;0.40;;
13441;SDS011;6793;55.662;13.114;2023-01-28T06:18:50;0.30;;;0.30;;
13441;SDS011;6793;55.662;13.114;2023-01-28T06:21:17;0.30;;;0.30;;
13441;SDS011;6793;55.662;13.114;2023-01-28T06:23:45;0.20;;;0.20;;
13441;SDS011;6793;55.662;13.114;2023-01-28T06:26:12;0.30;;;0.30;;
13441;SDS011;6793;55.662;13.114;2023-01-28T06:28:39;0.30;;;0.30;;
13441;SDS011;6793;55.662;13.114;2023-01-28T06:31:06;0.20;;;0.20;;
13441;SDS011;6793;55.662;13.114;2023-01-28T06:33:33;0.30;;;0.30;;
13441;SDS011;6793;55.662;13.114;2023-01-28T06:36:01;0.30;;;0.30;;
13441;SDS011;6793;55.662;13.114;2023-01-28T06:38:28;0.30;;;0.30;;
13441;SDS011;6793;55.662;13.114;2023-01-28T06:40:56;0.20;;;0.20;;
13441;SDS011;6793;55.662;13.114;2023-01-28T06:43:23;0.40;;;0.40;;
13441;SDS011;6793;55.662;13.114;2023-01-28T06:45:52;0.30;;;0.30;;
13441;SDS011;6793;55.662;13.114;2023-01-28T06:48:19;0.40;;;0.40;;
13441;SDS011;6793;55.662;13.114;2023-01-28T06:50:46;0.20;;;0.20;;
13441;SDS011;6793;55.662;13.114;2023-01-28T06:53:13;0.30;;;0.30;;
13441;SDS011;6793;55.662;13.114;2023-01-28T06:55:40;0.30;;;0.30;;
13441;SDS011;6793;55.662;13.114;2023-01-28T06:58:08;0.30;;;0.30;;
13441;SDS011;6793;55.662;13.114;2023-01-28T07:00:35;0.30;;;0.30;;
13441;SDS011;6793;55.662;13.114;2023-01-28T07:03:02;0.30;;;0.30;;
13441;SDS011;6793;55.662;13.114;2023-01-28T07:05:29;0.30;;;0.30;;
13441;SDS011;6793;55.662;13.114;2023-01-28T07:07:56;0.30;;;0.30;;
13441;SDS011;6793;55.662;13.114;2023-01-28T07:10:24;0.40;;;0.40;;
13441;SDS011;6793;55.662;13.114;2023-01-28T07:12:51;0.30;;;0.30;;
13441;SDS011;6793;55.662;13.114;2023-01-28T07:15:19;0.30;;;0.30;;
13441;SDS011;6793;55.662;13.114;2023-01-28T07:17:46;0.37;;;0.37;;
13441;SDS011;6793;55.662;13.114;2023-01-28T07:20:13;0.30;;;0.30;;
13441;SDS011;6793;55.662;13.114;2023-01-28T07:22:41;0.30;;;0.30;;
13441;SDS011;6793;55.662;13.114;2023-01-28T07:25:09;0.30;;;0.30;;
13441;SDS011;6793;55.662;13.114;2023-01-28T07:27:36;0.20;;;0.20;;
13441;SDS011;6793;55.662;13.114;2023-01-28T07:30:03;0.53;;;0.53;;
13441;SDS011;6793;55.662;13.114;2023-01-28T07:32:32;0.30;;;0.30;;
13441;SDS011;6793;55.662;13.114;2023-01-28T07:34:59;0.40;;;0.40;;
13441;SDS011;6793;55.662;13.114;2023-01-28T07:37:26;0.40;;;0.40;;
13441;SDS011;6793;55.662;13.114;2023-01-28T07:39:53;0.40;;;0.40;;
13441;SDS011;6793;55.662;13.114;2023-01-28T07:42:20;0.40;;;0.40;;
13441;SDS011;6793;55.662;13.114;2023-01-28T07:44:47;0.50;;;0.50;;
13441;SDS011;6793;55.662;13.114;2023-01-28T07:47:14;0.60;;;0.60;;
13441;SDS011;6793;55.662;13.114;2023-01-28T07:49:43;0.43;;;0.43;;
13441;SDS011;6793;55.662;13.114;2023-01-28T07:52:10;0.30;;;0.30;;
13441;SDS011;6793;55.662;13.114;2023-01-28T07:54:37;0.10;;;0.10;;
13441;SDS011;6793;55.662;13.114;2023-01-28T07:57:06;0.10;;;0.10;;
13441;SDS011;6793;55.662;13.114;2023-01-28T07:59:34;0.10;;;0.10;;
13441;SDS011;6793;55.662;13.114;2023-01-28T08:02:01;0.00;;;0.00;;
13441;SDS011;6793;55.662;13.114;2023-01-28T08:04:28;0.00;;;0.00;;
13441;SDS011;6793;55.662;13.114;2023-01-28T08:06:57;0.00;;;0.00;;
13441;SDS011;6793;55.662;13.114;2023-01-28T08:09:24;0.00;;;0.00;;
13441;SDS011;6793;55.662;13.114;2023-01-28T08:11:51;0.00;;;0.00;;
13441;SDS011;6793;55.662;13.114;2023-01-28T08:14:18;0.00;;;0.00;;
13441;SDS011;6793;55.662;13.114;2023-01-28T08:16:45;0.00;;;0.00;;
13441;SDS011;6793;55.662;13.114;2023-01-28T08:19:12;0.00;;;0.00;;
13441;SDS011;6793;55.662;13.114;2023-01-28T08:21:41;0.00;;;0.00;;
13441;SDS011;6793;55.662;13.114;2023-01-28T08:24:10;0.10;;;0.10;;
13441;SDS011;6793;55.662;13.114;2023-01-28T08:26:37;0.00;;;0.00;;
13441;SDS011;6793;55.662;13.114;2023-01-28T08:29:04;0.00;;;0.00;;
13441;SDS011;6793;55.662;13.114;2023-01-28T08:31:31;0.00;;;0.00;;
13441;SDS011;6793;55.662;13.114;2023-01-28T08:33:58;0.00;;;0.00;;
13441;SDS011;6793;55.662;13.114;2023-01-28T08:36:25;0.00;;;0.00;;
13441;SDS011;6793;55.662;13.114;2023-01-28T08:38:52;0.00;;;0.00;;
13441;SDS011;6793;55.662;13.114;2023-01-28T08:41:20;0.00;;;0.00;;
13441;SDS011;6793;55.662;13.114;2023-01-28T08:43:48;0.00;;;0.00;;
13441;SDS011;6793;55.662;13.114;2023-01-28T08:46:15;0.00;;;0.00;;
13441;SDS011;6793;55.662;13.114;2023-01-28T08:48:42;0.00;;;0.00;;
13441;SDS011;6793;55.662;13.114;2023-01-28T08:51:10;0.00;;;0.00;;
13441;SDS011;6793;55.662;13.114;2023-01-28T08:53:37;0.00;;;0.00;;
13441;SDS011;6793;55.662;13.114;2023-01-28T08:56:04;0.00;;;0.00;;
13441;SDS011;6793;55.662;13.114;2023-01-28T08:58:32;0.00;;;0.00;;
13441;SDS011;6793;55.662;13.114;2023-01-28T09:01:02;0.00;;;0.00;;
13441;SDS011;6793;55.662;13.114;2023-01-28T09:03:29;0.00;;;0.00;;
13441;SDS011;6793;55.662;13.114;2023-01-28T09:05:58;0.00;;;0.00;;
13441;SDS011;6793;55.662;13.114;2023-01-28T09:08:26;0.00;;;0.00;;
13441;SDS011;6793;55.662;13.114;2023-01-28T09:10:53;0.00;;;0.00;;
13441;SDS011;6793;55.662;13.114;2023-01-28T09:13:20;0.00;;;0.00;;
13441;SDS011;6793;55.662;13.114;2023-01-28T09:15:49;0.00;;;0.00;;
13441;SDS011;6793;55.662;13.114;2023-01-28T09:18:16;0.00;;;0.00;;
13441;SDS011;6793;55.662;13.114;2023-01-28T09:20:43;0.00;;;0.00;;
13441;SDS011;6793;55.662;13.114;2023-01-28T09:23:10;0.00;;;0.00;;
13441;SDS011;6793;55.662;13.114;2023-01-28T09:25:37;0.00;;;0.00;;
13441;SDS011;6793;55.662;13.114;2023-01-28T09:28:04;0.00;;;0.00;;
13441;SDS011;6793;55.662;13.114;2023-01-28T09:30:32;0.00;;;0.00;;
13441;SDS011;6793;55.662;13.114;2023-01-28T09:33:01;0.00;;;0.00;;
13441;SDS011;6793;55.662;13.114;2023-01-28T09:35:28;0.00;;;0.00;;
13441;SDS011;6793;55.662;13.114;2023-01-28T09:37:58;0.00;;;0.00;;
13441;SDS011;6793;55.662;13.114;2023-01-28T09:40:28;0.00;;;0.00;;
13441;SDS011;6793;55.662;13.114;2023-01-28T09:42:58;0.00;;;0.00;;
13441;SDS011;6793;55.662;13.114;2023-01-28T09:45:28;0.00;;;0.00;;
13441;SDS011;6793;55.662;13.114;2023-01-28T09:47:59;0.00;;;0.00;;
13441;SDS011;6793;55.662;13.114;2023-01-28T09:50:31;0.00;;;0.00;;
13441;SDS011;6793;55.662;13.114;2023-01-28T09:52:59;0.00;;;0.00;;
13441;SDS011;6793;55.662;13.114;2023-01-28T09:55:29;0.00;;;0.00;;
13441;SDS011;6793;55.662;13.114;2023-01-28T09:57:57;0.00;;;0.00;;
13441;SDS011;6793;55.662;13.114;2023-01-28T10:00:25;0.00;;;0.00;;
13441;SDS011;6793;55.662;13.114;2023-01-28T10:03:01;0.00;;;0.00;;
13441;SDS011;6793;55.662;13.114;2023-01-28T10:05:35;0.00;;;0.00;;
13441;SDS011;6793;55.662;13.114;2023-01-28T10:08:13;0.00;;;0.00;;
13441;SDS011;6793;55.662;13.114;2023-01-28T10:10:43;0.00;;;0.00;;
13441;SDS011;6793;55.662;13.114;2023-01-28T10:13:13;0.00;;;0.00;;
13441;SDS011;6793;55.662;13.114;2023-01-28T10:15:53;0.00;;;0.00;;
13441;SDS011;6793;55.662;13.114;2023-01-28T10:18:27;0.00;;;0.00;;
13441;SDS011;6793;55.662;13.114;2023-01-28T10:21:00;0.00;;;0.00;;
13441;SDS011;6793;55.662;13.114;2023-01-28T10:23:30;0.00;;;0.00;;
13441;SDS011;6793;55.662;13.114;2023-01-28T10:25:57;0.00;;;0.00;;
13441;SDS011;6793;55.662;13.114;2023-01-28T10:28:25;0.00;;;0.00;;
13441;SDS011;6793;55.662;13.114;2023-01-28T10:30:53;0.00;;;0.00;;
13441;SDS011;6793;55.662;13.114;2023-01-28T10:33:21;0.00;;;0.00;;
13441;SDS011;6793;55.662;13.114;2023-01-28T10:35:49;0.00;;;0.00;;
13441;SDS011;6793;55.662;13.114;2023-01-28T10:38:19;0.00;;;0.00;;
13441;SDS011;6793;55.662;13.114;2023-01-28T10:40:46;0.00;;;0.00;;
13441;SDS011;6793;55.662;13.114;2023-01-28T10:43:14;0.00;;;0.00;;
13441;SDS011;6793;55.662;13.114;2023-01-28T10:45:44;0.00;;;0.00;;
13441;SDS011;6793;55.662;13.114;2023-01-28T10:48:15;0.00;;;0.00;;
13441;SDS011;6793;55.662;13.114;2023-01-28T10:50:49;0.00;;;0.00;;
13441;SDS011;6793;55.662;13.114;2023-01-28T10:53:16;0.00;;;0.00;;
13441;SDS011;6793;55.662;13.114;2023-01-28T10:55:47;0.00;;;0.00;;
13441;SDS011;6793;55.662;13.114;2023-01-28T10:58:16;0.00;;;0.00;;
13441;SDS011;6793;55.662;13.114;2023-01-28T11:00:44;0.00;;;0.00;;
13441;SDS011;6793;55.662;13.114;2023-01-28T11:03:15;0.00;;;0.00;;
13441;SDS011;6793;55.662;13.114;2023-01-28T11:05:49;0.00;;;0.00;;
13441;SDS011;6793;55.662;13.114;2023-01-28T11:08:16;0.00;;;0.00;;
13441;SDS011;6793;55.662;13.114;2023-01-28T11:10:44;0.00;;;0.00;;
13441;SDS011;6793;55.662;13.114;2023-01-28T11:13:16;0.00;;;0.00;;
13441;SDS011;6793;55.662;13.114;2023-01-28T11:15:47;0.00;;;0.00;;
13441;SDS011;6793;55.662;13.114;2023-01-28T11:18:16;0.00;;;0.00;;
13441;SDS011;6793;55.662;13.114;2023-01-28T11:20:48;0.00;;;0.00;;
13441;SDS011;6793;55.662;13.114;2023-01-28T11:23:17;0.00;;;0.00;;
